Time;durP1;ratioP1;P1;durP2;ratioP2;P2;SDS_P1;SDS_P2;PMS_P1;PMS_P2;Temp;Humidity;BMP_temperature;BMP_pressure;BME280_temperature;BME280_humidity;BME280_pressure;Samples;Min_cycle;Max_cycle;Signal;HPM_P1;HPM_P2
2021/08/07 00:00:12;;;;;;;2.05;1.15;;;19.10;74.10;;;;;;5051093;28;20492;-70
2021/08/07 00:02:38;;;;;;;1.80;1.17;;;19.10;74.30;;;;;;5051326;28;20032;-69
2021/08/07 00:05:05;;;;;;;1.30;1.05;;;19.10;74.60;;;;;;5052341;28;20032;-70
2021/08/07 00:07:30;;;;;;;3.42;1.40;;;19.10;74.80;;;;;;5051097;28;20032;-70
2021/08/07 00:09:56;;;;;;;3.42;1.65;;;19.10;75.00;;;;;;5051305;28;20021;-70
2021/08/07 00:12:22;;;;;;;2.30;1.30;;;19.00;75.10;;;;;;5051022;28;20021;-70
2021/08/07 00:14:47;;;;;;;1.42;1.20;;;19.00;75.40;;;;;;5052160;28;20060;-69
2021/08/07 00:17:13;;;;;;;2.38;1.13;;;19.00;75.50;;;;;;5051512;28;20024;-70
2021/08/07 00:19:38;;;;;;;1.83;1.20;;;19.00;75.70;;;;;;5072219;28;20100;-70
2021/08/07 00:22:05;;;;;;;2.88;1.35;;;19.00;75.80;;;;;;5072174;28;20024;-70
2021/08/07 00:24:30;;;;;;;1.35;1.10;;;19.00;75.90;;;;;;5054218;28;20468;-74
2021/08/07 00:26:56;;;;;;;2.28;1.17;;;19.00;76.00;;;;;;5071997;28;20081;-73
2021/08/07 00:29:22;;;;;;;2.80;1.48;;;18.90;76.00;;;;;;5076063;28;20028;-74
2021/08/07 00:31:47;;;;;;;2.53;1.35;;;18.90;76.10;;;;;;5058105;28;20035;-74
2021/08/07 00:34:13;;;;;;;2.33;1.20;;;18.90;76.20;;;;;;5075779;28;20103;-69
2021/08/07 00:36:39;;;;;;;3.45;1.13;;;18.90;76.20;;;;;;5075979;28;20391;-70
2021/08/07 00:39:05;;;;;;;2.35;1.20;;;18.90;76.30;;;;;;5057848;28;20031;-69
2021/08/07 00:41:31;;;;;;;2.30;1.30;;;18.80;76.20;;;;;;5075673;28;20020;-70
2021/08/07 00:43:57;;;;;;;1.98;1.30;;;18.80;76.30;;;;;;5057731;28;20541;-71
2021/08/07 00:46:23;;;;;;;2.83;1.73;;;18.80;76.30;;;;;;5057731;28;20059;-75
2021/08/07 00:48:49;;;;;;;2.30;1.30;;;18.70;76.20;;;;;;5058075;28;20487;-74
2021/08/07 00:51:16;;;;;;;2.60;1.20;;;18.70;76.30;;;;;;5057724;28;20028;-74
2021/08/07 00:53:41;;;;;;;1.15;0.90;;;18.70;76.40;;;;;;5057440;28;20107;-75
2021/08/07 00:56:07;;;;;;;2.42;1.10;;;18.70;76.50;;;;;;5057640;28;20047;-75
2021/08/07 00:58:32;;;;;;;2.00;1.30;;;18.60;76.50;;;;;;5057471;28;20020;-75
2021/08/07 01:01:03;;;;;;;2.33;1.27;;;18.60;77.20;;;;;;5057538;28;20028;-75
2021/08/07 01:03:35;;;;;;;4.10;1.60;;;18.60;76.70;;;;;;5075416;28;20024;-74
2021/08/07 01:06:24;;;;;;;4.97;1.40;;;18.60;76.70;;;;;;5057356;28;20441;-74
2021/08/07 01:09:19;;;;;;;3.15;1.50;;;18.60;76.80;;;;;;5056683;28;20121;-75
2021/08/07 01:11:48;;;;;;;2.75;1.95;;;18.60;76.80;;;;;;5057210;28;20119;-75
2021/08/07 01:14:17;;;;;;;3.00;1.40;;;18.60;76.80;;;;;;5057119;28;20108;-75
2021/08/07 01:16:46;;;;;;;2.45;1.42;;;18.60;76.90;;;;;;5057003;28;20024;-74
2021/08/07 01:19:18;;;;;;;4.15;2.05;;;18.60;76.90;;;;;;5053664;28;20033;-75
2021/08/07 01:22:04;;;;;;;2.90;1.48;;;18.60;77.00;;;;;;5053819;28;20095;-74
2021/08/07 01:24:51;;;;;;;3.08;1.27;;;18.60;77.10;;;;;;5054953;28;20033;-75
2021/08/07 01:27:26;;;;;;;3.10;1.60;;;18.60;77.10;;;;;;5053679;28;20400;-74
2021/08/07 01:29:53;;;;;;;1.80;1.35;;;18.60;77.20;;;;;;5054804;28;20032;-73
2021/08/07 01:32:27;;;;;;;3.08;1.48;;;18.60;77.20;;;;;;5053640;28;20029;-75
2021/08/07 01:34:53;;;;;;;;;;;18.60;77.40;;;;;;5053837;28;20542;-74
2021/08/07 01:37:20;;;;;;;2.97;1.55;;;18.60;77.30;;;;;;5053549;28;20288;-75
2021/08/07 01:39:48;;;;;;;1.67;1.50;;;18.50;77.30;;;;;;5052117;28;20021;-75
2021/08/07 01:42:13;;;;;;;2.35;1.52;;;18.50;77.50;;;;;;5054746;28;20029;-75
2021/08/07 01:44:39;;;;;;;3.40;1.88;;;18.50;77.70;;;;;;5054576;28;20021;-74
2021/08/07 01:47:23;;;;;;;2.85;1.90;;;18.50;77.90;;;;;;5053316;28;20017;-74
2021/08/07 01:50:09;;;;;;;3.15;1.70;;;18.40;78.00;;;;;;5053232;28;20508;-75
2021/08/07 01:52:44;;;;;;;3.28;1.45;;;18.40;78.00;;;;;;5052704;28;20512;-75
2021/08/07 01:55:20;;;;;;;2.45;1.75;;;18.40;78.30;;;;;;5053180;28;20119;-75
2021/08/07 01:57:54;;;;;;;1.83;1.70;;;18.40;78.50;;;;;;5053096;28;20112;-75
2021/08/07 02:00:21;;;;;;;2.45;1.85;;;18.40;78.60;;;;;;5053011;28;20115;-76
2021/08/07 02:02:47;;;;;;;2.97;1.67;;;18.40;79.30;;;;;;5052945;28;20029;-75
2021/08/07 02:05:13;;;;;;;3.28;1.90;;;18.40;78.90;;;;;;5054165;28;20021;-75
2021/08/07 02:07:39;;;;;;;1.75;1.50;;;18.30;79.00;;;;;;5053004;28;20013;-75
2021/08/07 02:10:09;;;;;;;4.07;1.90;;;18.30;79.20;;;;;;5052758;28;20527;-75
2021/08/07 02:12:34;;;;;;;3.72;1.90;;;18.20;79.40;;;;;;5052797;28;20027;-75
2021/08/07 02:15:00;;;;;;;2.33;1.90;;;18.20;79.50;;;;;;5054077;28;20103;-75
2021/08/07 02:17:27;;;;;;;4.45;1.70;;;18.20;79.70;;;;;;5054770;28;20086;-75
2021/08/07 02:19:53;;;;;;;1.75;1.65;;;18.10;79.80;;;;;;5055954;28;20055;-75
2021/08/07 02:22:19;;;;;;;3.53;2.00;;;18.10;79.90;;;;;;5056008;28;20056;-75
2021/08/07 02:24:46;;;;;;;2.10;1.52;;;18.10;80.00;;;;;;5055829;28;20488;-74
2021/08/07 02:27:12;;;;;;;2.50;1.80;;;18.00;80.00;;;;;;5055880;28;20055;-75
2021/08/07 02:29:39;;;;;;;4.03;1.70;;;18.00;80.00;;;;;;5073713;28;20520;-75
2021/08/07 02:32:06;;;;;;;2.97;1.60;;;18.00;80.10;;;;;;5055719;28;20017;-75
2021/08/07 02:34:33;;;;;;;2.40;1.70;;;17.90;80.20;;;;;;5055492;28;20391;-75
2021/08/07 02:36:59;;;;;;;3.22;1.77;;;17.90;80.30;;;;;;5055766;28;20024;-76
2021/08/07 02:39:26;;;;;;;2.05;1.77;;;17.90;80.40;;;;;;5055531;28;20119;-75
2021/08/07 02:41:54;;;;;;;2.35;1.63;;;17.80;80.40;;;;;;5055581;28;20049;-75
2021/08/07 02:44:20;;;;;;;6.00;2.30;;;17.80;80.50;;;;;;5073826;28;20017;-76
2021/08/07 02:46:46;;;;;;;3.75;1.80;;;17.80;80.60;;;;;;5055802;28;20036;-75
2021/08/07 02:50:02;;;;;;;2.53;1.52;;;17.80;80.70;;;;;;5072072;28;20028;-76
2021/08/07 02:52:27;;;;;;;3.03;1.95;;;17.70;80.80;;;;;;5055288;28;20025;-74
2021/08/07 02:54:54;;;;;;;3.35;1.95;;;17.60;80.70;;;;;;5055677;28;20035;-75
2021/08/07 02:57:20;;;;;;;5.72;1.92;;;17.60;80.80;;;;;;5073260;28;20103;-75
2021/08/07 02:59:46;;;;;;;4.82;1.85;;;17.60;81.00;;;;;;5055167;28;20116;-75
2021/08/07 03:02:12;;;;;;;2.70;1.60;;;17.60;81.00;;;;;;5055252;28;20482;-75
2021/08/07 03:04:37;;;;;;;2.38;1.70;;;17.60;81.10;;;;;;5055198;28;20048;-75
2021/08/07 03:07:06;;;;;;;4.93;2.20;;;17.50;81.10;;;;;;5055261;28;20073;-75
2021/08/07 03:09:31;;;;;;;3.50;2.00;;;17.50;81.20;;;;;;5055448;28;20021;-75
2021/08/07 03:11:57;;;;;;;2.55;1.80;;;17.40;81.20;;;;;;5055044;28;20468;-75
2021/08/07 03:14:23;;;;;;;2.63;1.90;;;17.40;81.30;;;;;;5054973;28;20103;-75
2021/08/07 03:16:48;;;;;;;2.63;1.52;;;17.50;81.40;;;;;;5052236;28;20024;-75
2021/08/07 03:19:14;;;;;;;2.72;2.00;;;17.50;81.50;;;;;;5068717;28;20358;-76
2021/08/07 03:21:39;;;;;;;3.85;1.70;;;17.50;81.50;;;;;;5055064;28;20016;-75
2021/08/07 03:24:05;;;;;;;3.17;1.60;;;17.40;81.50;;;;;;5054899;28;20028;-76
2021/08/07 03:26:31;;;;;;;3.35;1.70;;;17.40;81.50;;;;;;5054841;28;20082;-76
2021/08/07 03:28:56;;;;;;;2.13;1.73;;;17.40;81.60;;;;;;5054726;28;20029;-75
2021/08/07 03:31:22;;;;;;;3.05;1.70;;;17.40;81.60;;;;;;5055164;28;20031;-74
2021/08/07 03:33:48;;;;;;;3.00;1.75;;;17.40;81.70;;;;;;5054694;28;20105;-74
2021/08/07 03:36:13;;;;;;;2.95;1.50;;;17.40;81.70;;;;;;5054643;28;20075;-74
2021/08/07 03:38:39;;;;;;;3.08;1.83;;;17.30;81.70;;;;;;5054610;28;20024;-75
2021/08/07 03:41:05;;;;;;;3.33;1.30;;;17.30;81.70;;;;;;5054741;28;20012;-73
2021/08/07 03:43:30;;;;;;;1.65;1.42;;;17.30;81.70;;;;;;5054504;28;20028;-74
2021/08/07 03:45:56;;;;;;;3.10;1.38;;;17.30;81.70;;;;;;5054734;28;20029;-74
2021/08/07 03:48:22;;;;;;;2.45;1.33;;;17.30;81.70;;;;;;5054823;28;20518;-74
2021/08/07 03:50:47;;;;;;;3.22;1.50;;;17.30;81.70;;;;;;5054664;28;20063;-75
2021/08/07 03:53:13;;;;;;;1.90;1.20;;;17.30;81.70;;;;;;5054422;28;20056;-75
2021/08/07 03:55:39;;;;;;;2.55;1.27;;;17.30;81.60;;;;;;5054647;28;20541;-74
2021/08/07 03:58:04;;;;;;;1.95;1.17;;;17.30;81.60;;;;;;5072494;28;20074;-74
2021/08/07 04:00:33;;;;;;;2.72;1.40;;;17.30;81.60;;;;;;5054548;28;20032;-75
2021/08/07 04:02:59;;;;;;;3.15;1.48;;;17.30;81.60;;;;;;5075341;28;20146;-74
2021/08/07 04:05:25;;;;;;;1.52;1.30;;;17.30;81.50;;;;;;5058370;28;20024;-75
2021/08/07 04:07:51;;;;;;;3.03;1.20;;;17.40;81.50;;;;;;5058531;28;20017;-74
2021/08/07 04:10:18;;;;;;;2.40;1.27;;;17.40;81.40;;;;;;5058345;28;20017;-74
2021/08/07 04:12:44;;;;;;;3.42;1.33;;;17.40;81.40;;;;;;5058316;28;20444;-74
2021/08/07 04:15:11;;;;;;;4.20;1.50;;;17.50;81.40;;;;;;5058197;28;20116;-74
2021/08/07 04:17:40;;;;;;;4.65;1.25;;;17.50;81.40;;;;;;5058107;28;20059;-75
2021/08/07 04:20:09;;;;;;;2.28;1.50;;;17.50;81.30;;;;;;5058184;28;20017;-76
2021/08/07 04:22:35;;;;;;;1.92;1.40;;;17.50;81.30;;;;;;5058166;28;20046;-74
2021/08/07 04:25:01;;;;;;;3.45;1.30;;;17.50;81.20;;;;;;5058324;28;20021;-77
2021/08/07 04:27:27;;;;;;;3.13;1.40;;;17.60;81.30;;;;;;5058220;28;20021;-76
2021/08/07 04:29:53;;;;;;;1.63;1.30;;;17.60;81.30;;;;;;5058081;28;20031;-77
2021/08/07 04:32:18;;;;;;;3.40;1.38;;;17.60;81.30;;;;;;5058123;28;20032;-76
2021/08/07 04:34:44;;;;;;;2.22;1.30;;;17.60;81.20;;;;;;5055008;28;20078;-75
2021/08/07 04:37:11;;;;;;;3.00;1.40;;;17.70;81.30;;;;;;5057796;28;20070;-75
2021/08/07 04:39:36;;;;;;;3.35;1.33;;;17.70;81.30;;;;;;5057863;28;20021;-75
2021/08/07 04:42:03;;;;;;;2.85;1.50;;;17.70;81.20;;;;;;5057930;28;20036;-76
2021/08/07 04:44:28;;;;;;;1.75;1.40;;;17.70;81.20;;;;;;5057729;28;20117;-75
2021/08/07 04:46:54;;;;;;;1.92;1.35;;;17.70;81.20;;;;;;5057722;28;20056;-75
2021/08/07 04:49:20;;;;;;;2.33;1.10;;;17.70;81.20;;;;;;5075608;28;20471;-75
2021/08/07 04:51:45;;;;;;;4.45;1.40;;;17.70;81.20;;;;;;5057500;28;20052;-74
2021/08/07 04:54:11;;;;;;;2.03;1.30;;;17.70;81.20;;;;;;5057645;28;20017;-76
2021/08/07 04:56:37;;;;;;;2.17;1.30;;;17.70;81.10;;;;;;5057605;28;20020;-75
2021/08/07 04:59:04;;;;;;;2.08;1.38;;;17.80;81.10;;;;;;5075117;28;20036;-75
2021/08/07 05:01:29;;;;;;;2.42;1.40;;;17.80;81.10;;;;;;5057382;28;20108;-75
2021/08/07 05:03:55;;;;;;;1.67;1.40;;;17.80;81.10;;;;;;5057421;28;20071;-75
2021/08/07 05:09:43;;;;;;;3.47;1.85;;;17.80;81.00;;;;;;5075692;28;20495;-75
2021/08/07 05:12:08;;;;;;;2.05;1.33;;;17.90;81.00;;;;;;5057424;28;20024;-76
2021/08/07 05:14:37;;;;;;;1.52;1.25;;;17.90;80.90;;;;;;5056903;28;20024;-76
2021/08/07 05:17:02;;;;;;;4.53;1.48;;;17.90;80.90;;;;;;5057270;28;20468;-76
2021/08/07 05:19:28;;;;;;;1.95;1.48;;;18.00;80.80;;;;;;5053676;28;20087;-77
2021/08/07 05:21:54;;;;;;;2.65;1.30;;;18.00;80.70;;;;;;5055453;28;20035;-76
2021/08/07 05:24:19;;;;;;;2.47;1.42;;;18.10;80.60;;;;;;5053850;28;20056;-76
2021/08/07 05:26:45;;;;;;;2.42;1.40;;;18.10;80.60;;;;;;5053798;28;20028;-76
2021/08/07 05:29:11;;;;;;;2.67;1.50;;;18.20;80.60;;;;;;5055107;28;20504;-76
2021/08/07 05:31:36;;;;;;;2.95;1.40;;;18.20;80.50;;;;;;5055190;28;20029;-76
2021/08/07 05:34:02;;;;;;;1.52;1.20;;;18.20;80.40;;;;;;5053560;28;20051;-76
2021/08/07 05:36:27;;;;;;;2.63;1.50;;;18.20;80.30;;;;;;5053755;28;20112;-76
2021/08/07 05:42:15;;;;;;;1.85;1.27;;;18.30;80.10;;;;;;5055086;28;20083;-76
2021/08/07 05:44:41;;;;;;;1.95;1.20;;;18.30;79.90;;;;;;5053330;28;20021;-75
2021/08/07 05:47:06;;;;;;;4.80;1.50;;;18.30;79.80;;;;;;5053304;28;20079;-75
2021/08/07 05:49:32;;;;;;;1.55;1.15;;;18.40;79.80;;;;;;5053217;28;20033;-75
2021/08/07 05:51:58;;;;;;;2.28;1.35;;;18.40;80.20;;;;;;5054554;28;20025;-75
2021/08/07 05:54:23;;;;;;;1.95;1.33;;;18.40;79.50;;;;;;5053105;28;20044;-75
2021/08/07 05:56:49;;;;;;;2.30;1.20;;;18.50;79.40;;;;;;5054419;28;20033;-76
2021/08/07 05:59:15;;;;;;;3.00;1.08;;;18.50;79.30;;;;;;5053126;28;20021;-76
2021/08/07 06:01:40;;;;;;;3.13;1.08;;;18.50;79.10;;;;;;5053091;28;20132;-76
2021/08/07 06:04:06;;;;;;;1.38;1.10;;;18.60;79.10;;;;;;5052923;28;20013;-76
2021/08/07 06:06:33;;;;;;;1.92;1.10;;;18.60;78.90;;;;;;5052951;28;20025;-76
2021/08/07 06:08:58;;;;;;;2.03;1.20;;;18.60;78.80;;;;;;5053083;28;20108;-75
2021/08/07 06:11:24;;;;;;;4.60;1.30;;;18.60;78.60;;;;;;5053084;28;20089;-76
2021/08/07 06:13:49;;;;;;;2.33;1.15;;;18.70;78.50;;;;;;5052714;28;20392;-75
2021/08/07 06:16:15;;;;;;;3.08;1.30;;;18.70;78.50;;;;;;5053039;28;20025;-75
2021/08/07 06:18:41;;;;;;;3.88;1.27;;;18.70;78.30;;;;;;5052586;28;20096;-76
2021/08/07 06:21:06;;;;;;;2.63;1.30;;;18.80;78.20;;;;;;5052761;28;20469;-75
2021/08/07 06:23:32;;;;;;;2.78;1.10;;;18.90;78.00;;;;;;5052940;28;20036;-75
2021/08/07 06:25:58;;;;;;;2.90;1.55;;;19.00;77.80;;;;;;5051829;28;20025;-75
2021/08/07 06:28:23;;;;;;;3.85;1.08;;;19.00;77.60;;;;;;5052597;28;20025;-74
2021/08/07 06:30:49;;;;;;;1.75;1.08;;;19.00;77.60;;;;;;5052388;28;20116;-75
2021/08/07 06:33:15;;;;;;;2.55;1.30;;;19.00;77.50;;;;;;5052512;28;20127;-76
2021/08/07 06:35:41;;;;;;;2.70;1.42;;;19.00;77.40;;;;;;5052047;28;20511;-75
2021/08/07 06:38:07;;;;;;;3.13;1.55;;;19.10;77.30;;;;;;5053763;28;20043;-76
2021/08/07 06:40:34;;;;;;;2.90;1.40;;;19.10;77.20;;;;;;5053632;28;20017;-76
2021/08/07 06:43:01;;;;;;;1.52;1.13;;;19.10;77.00;;;;;;5052287;28;20341;-76
2021/08/07 06:45:27;;;;;;;1.65;1.20;;;19.20;76.80;;;;;;5052141;28;20464;-75
2021/08/07 06:47:53;;;;;;;2.35;1.05;;;19.30;76.70;;;;;;5052194;28;20112;-75
2021/08/07 06:50:18;;;;;;;1.50;0.90;;;19.30;76.50;;;;;;5052138;28;20028;-76
2021/08/07 06:52:44;;;;;;;2.15;1.13;;;19.40;76.30;;;;;;5052105;28;20508;-76
2021/08/07 06:55:10;;;;;;;2.67;0.90;;;19.40;76.10;;;;;;5051954;28;20029;-76
2021/08/07 06:57:40;;;;;;;3.63;1.02;;;19.40;75.90;;;;;;5053320;28;20102;-77
2021/08/07 07:00:09;;;;;;;2.53;1.05;;;19.40;75.60;;;;;;5052026;28;20036;-75
2021/08/07 07:02:35;;;;;;;2.60;1.33;;;19.50;75.60;;;;;;5051948;28;20082;-75
2021/08/07 07:05:01;;;;;;;2.17;0.90;;;19.60;75.10;;;;;;5053317;28;20021;-76
2021/08/07 07:07:26;;;;;;;2.33;0.90;;;19.70;74.80;;;;;;5051817;28;20047;-76
2021/08/07 07:09:52;;;;;;;1.27;0.90;;;19.80;74.40;;;;;;5053124;28;20048;-75
2021/08/07 07:12:17;;;;;;;1.50;0.80;;;19.90;74.00;;;;;;5051712;28;20021;-75
2021/08/07 07:14:43;;;;;;;2.80;0.98;;;20.10;73.70;;;;;;5051726;28;20043;-76
2021/08/07 07:17:09;;;;;;;2.70;0.90;;;20.20;73.30;;;;;;5051659;28;20017;-77
2021/08/07 07:19:37;;;;;;;2.00;0.88;;;20.30;72.80;;;;;;5055071;28;20074;-75
2021/08/07 07:22:03;;;;;;;2.13;0.80;;;20.40;72.40;;;;;;5073070;28;20012;-77
2021/08/07 07:24:29;;;;;;;3.67;0.90;;;20.50;72.00;;;;;;5055022;28;20476;-75
2021/08/07 07:30:17;;;;;;;2.25;0.80;;;20.40;70.90;;;;;;5073256;28;20391;-76
2021/08/07 07:32:43;;;;;;;3.17;0.98;;;20.40;70.80;;;;;;5054793;28;20024;-75
2021/08/07 07:38:31;;;;;;;2.45;0.70;;;20.60;70.20;;;;;;5073180;28;20162;-75
2021/08/07 07:40:56;;;;;;;3.00;0.80;;;20.70;69.90;;;;;;5054802;28;20078;-76
2021/08/07 07:43:22;;;;;;;3.40;1.00;;;20.80;69.50;;;;;;5072586;28;20029;-77
2021/08/07 07:45:47;;;;;;;3.95;1.02;;;20.90;68.90;;;;;;5054828;28;20404;-77
2021/08/07 07:51:35;;;;;;;2.63;0.70;;;21.00;68.30;;;;;;5072972;28;20044;-76
2021/08/07 07:54:01;;;;;;;1.45;0.80;;;21.00;68.20;;;;;;5054606;28;20396;-76
2021/08/07 07:56:27;;;;;;;1.67;0.77;;;21.00;67.90;;;;;;5054612;28;20009;-76
2021/08/07 07:58:54;;;;;;;2.03;0.80;;;21.00;67.70;;;;;;5072790;28;20028;-76
2021/08/07 08:01:19;;;;;;;1.65;1.05;;;21.10;67.40;;;;;;5054372;28;20388;-76
2021/08/07 08:03:45;;;;;;;2.95;0.85;;;21.20;67.30;;;;;;5054467;28;20051;-76
2021/08/07 08:06:10;;;;;;;2.50;0.60;;;21.30;66.90;;;;;;5054472;28;20430;-76
2021/08/07 08:08:36;;;;;;;1.83;0.70;;;21.30;66.40;;;;;;5054560;28;20055;-75
2021/08/07 08:11:02;;;;;;;2.13;0.90;;;21.40;65.90;;;;;;5054555;28;20472;-76
2021/08/07 08:13:27;;;;;;;1.88;0.75;;;21.50;65.30;;;;;;5054343;28;20438;-77
2021/08/07 08:19:16;;;;;;;1.15;0.70;;;21.70;64.60;;;;;;5069873;28;20052;-77
2021/08/07 08:21:41;;;;;;;1.90;0.60;;;21.70;64.20;;;;;;5072327;28;20113;-77
2021/08/07 08:24:07;;;;;;;2.97;0.85;;;21.80;64.10;;;;;;5070939;28;20087;-76
2021/08/07 08:26:33;;;;;;;1.85;0.60;;;21.80;64.00;;;;;;5054161;28;20040;-76
2021/08/07 08:28:59;;;;;;;3.10;1.08;;;21.90;64.10;;;;;;5070855;28;20032;-76
2021/08/07 08:34:46;;;;;;;2.88;1.00;;;21.90;64.60;;;;;;5072325;28;20067;-76
2021/08/07 08:37:12;;;;;;;2.83;1.20;;;22.00;64.80;;;;;;5054162;28;20021;-76
2021/08/07 08:39:37;;;;;;;2.08;0.82;;;22.00;64.80;;;;;;5054453;28;20036;-76
2021/08/07 08:42:07;;;;;;;1.70;1.20;;;22.00;64.70;;;;;;5072122;28;20473;-76
2021/08/07 08:45:13;;;;;;;2.50;1.15;;;21.90;64.90;;;;;;5070994;28;20432;-77
2021/08/07 08:51:04;;;;;;;2.25;0.88;;;21.90;64.90;;;;;;5076127;28;20035;-76
2021/08/07 08:53:32;;;;;;;1.92;0.90;;;21.90;65.00;;;;;;5057940;28;20119;-76
2021/08/07 08:55:58;;;;;;;2.00;1.00;;;22.00;65.00;;;;;;5074309;28;20344;-77
2021/08/07 08:58:23;;;;;;;3.65;1.20;;;22.10;64.80;;;;;;5054619;28;20028;-76
2021/08/07 09:00:49;;;;;;;2.47;1.08;;;22.10;64.50;;;;;;5074220;28;20025;-77
2021/08/07 09:03:16;;;;;;;1.55;0.93;;;22.10;64.90;;;;;;5074193;28;20105;-77
2021/08/07 09:06:23;;;;;;;3.45;1.17;;;22.20;64.10;;;;;;5074342;28;20024;-76
2021/08/07 09:08:59;;;;;;;1.77;1.20;;;22.30;63.90;;;;;;5057175;28;20044;-77
2021/08/07 09:11:26;;;;;;;3.35;1.52;;;22.30;63.70;;;;;;5057376;28;20076;-75
2021/08/07 09:14:12;;;;;;;1.65;1.10;;;22.40;63.90;;;;;;5075220;28;20060;-76
2021/08/07 09:16:59;;;;;;;2.70;1.20;;;22.40;63.80;;;;;;5056903;28;20029;-76
2021/08/07 09:19:26;;;;;;;1.98;1.10;;;22.40;63.90;;;;;;5056849;28;20036;-76
2021/08/07 09:22:12;;;;;;;2.53;1.10;;;22.50;63.70;;;;;;5073864;28;20036;-77
2021/08/07 09:25:05;;;;;;;4.80;1.30;;;22.50;63.70;;;;;;5075002;28;20441;-78
2021/08/07 09:27:43;;;;;;;1.60;1.00;;;22.40;63.50;;;;;;5074946;28;20021;-76
2021/08/07 09:30:18;;;;;;;2.65;1.00;;;22.40;63.70;;;;;;5056979;28;20031;-76
2021/08/07 09:32:56;;;;;;;1.92;0.98;;;22.50;63.70;;;;;;5056969;28;20117;-75
2021/08/07 09:35:31;;;;;;;2.60;1.00;;;22.40;63.70;;;;;;5073403;28;20392;-76
2021/08/07 09:38:14;;;;;;;2.25;1.00;;;22.40;63.80;;;;;;5073382;28;20032;-77
2021/08/07 09:41:04;;;;;;;1.92;1.00;;;22.40;63.80;;;;;;5074653;28;20501;-76
2021/08/07 09:43:32;;;;;;;2.00;1.17;;;22.40;63.90;;;;;;5074460;28;20484;-76
2021/08/07 09:46:07;;;;;;;2.35;0.90;;;22.40;63.90;;;;;;5056393;28;20032;-76
2021/08/07 09:48:43;;;;;;;2.30;1.20;;;22.30;64.00;;;;;;5056504;28;20154;-77
2021/08/07 09:51:20;;;;;;;3.60;1.05;;;22.20;64.10;;;;;;5074420;28;20036;-74
2021/08/07 09:54:04;;;;;;;2.10;0.90;;;22.10;64.30;;;;;;5056298;28;20082;-74
2021/08/07 09:56:54;;;;;;;1.75;1.00;;;22.10;64.50;;;;;;5074195;28;20047;-75
2021/08/07 09:59:26;;;;;;;3.53;1.40;;;22.10;65.30;;;;;;5055485;28;20129;-74
2021/08/07 10:01:54;;;;;;;1.50;0.95;;;22.20;64.70;;;;;;5072905;28;20021;-75
2021/08/07 10:04:20;;;;;;;2.47;1.05;;;22.30;64.80;;;;;;5074280;28;20032;-73
2021/08/07 10:06:48;;;;;;;1.80;0.80;;;22.40;64.70;;;;;;5072916;28;20119;-72
2021/08/07 10:09:29;;;;;;;1.70;0.88;;;22.40;64.50;;;;;;5073261;28;20115;-72
2021/08/07 10:12:02;;;;;;;1.50;0.77;;;22.50;64.00;;;;;;5072771;28;20037;-72
2021/08/07 10:17:31;;;;;;;1.55;0.90;;;22.50;63.80;;;;;;5074466;28;20037;-70
2021/08/07 10:19:58;;;;;;;1.85;0.90;;;22.50;63.80;;;;;;5073747;28;20048;-69
2021/08/07 10:22:24;;;;;;;1.95;0.77;;;22.40;63.90;;;;;;5072695;28;20048;-70
2021/08/07 10:24:50;;;;;;;1.70;1.13;;;22.50;64.10;;;;;;5072596;28;20133;-76
2021/08/07 10:27:19;;;;;;;2.00;1.10;;;22.50;64.00;;;;;;5073893;28;20028;-73
2021/08/07 10:29:47;;;;;;;2.53;1.13;;;22.50;63.70;;;;;;5073756;28;20112;-71
2021/08/07 10:32:14;;;;;;;4.30;1.17;;;22.60;63.40;;;;;;5072391;28;20036;-74
2021/08/07 10:34:45;;;;;;;1.50;1.00;;;22.80;63.20;;;;;;5072214;28;20559;-72
2021/08/07 10:40:33;;;;;;;1.58;0.80;;;23.30;62.10;;;;;;5073825;28;20094;-71
2021/08/07 10:42:59;;;;;;;2.25;1.20;;;23.50;61.90;;;;;;5055684;28;20497;-70
2021/08/07 10:45:25;;;;;;;3.60;1.40;;;23.50;61.60;;;;;;5072150;28;20025;-71
2021/08/07 10:47:51;;;;;;;3.45;1.20;;;23.70;61.20;;;;;;5071950;28;20082;-70
2021/08/07 10:50:38;;;;;;;2.85;0.85;;;23.70;60.80;;;;;;5055788;28;20476;-72
2021/08/07 10:53:25;;;;;;;3.60;1.20;;;23.70;60.70;;;;;;5073234;28;20023;-74
2021/08/07 10:55:57;;;;;;;2.05;1.00;;;23.60;60.40;;;;;;5072944;28;20036;-71
2021/08/07 10:58:34;;;;;;;3.88;1.00;;;23.40;60.60;;;;;;5071977;28;20131;-72
2021/08/07 11:01:25;;;;;;;4.43;1.20;;;23.40;60.50;;;;;;5055345;28;20020;-72
2021/08/07 11:04:16;;;;;;;3.58;1.27;;;23.40;60.40;;;;;;5055111;28;20531;-74
2021/08/07 11:06:41;;;;;;;2.92;1.08;;;23.40;60.00;;;;;;5055050;28;20400;-72
2021/08/07 11:09:36;;;;;;;4.53;1.13;;;23.50;60.00;;;;;;5072992;28;20190;-74
2021/08/07 11:12:11;;;;;;;1.88;0.95;;;23.50;59.40;;;;;;5054734;28;20491;-74
2021/08/07 11:14:39;;;;;;;2.40;0.85;;;23.50;59.20;;;;;;5055170;28;20123;-73
2021/08/07 11:17:05;;;;;;;2.47;1.10;;;23.60;59.20;;;;;;5055056;28;20029;-74
2021/08/07 11:19:50;;;;;;;1.25;0.75;;;23.80;59.10;;;;;;5051624;28;20128;-74
2021/08/07 11:22:18;;;;;;;1.38;0.75;;;23.80;58.70;;;;;;5052763;28;20041;-74
2021/08/07 11:24:47;;;;;;;3.10;0.93;;;23.90;58.80;;;;;;5051878;28;20127;-74
2021/08/07 11:27:13;;;;;;;3.40;0.90;;;23.80;58.60;;;;;;5052845;28;20044;-76
2021/08/07 11:30:16;;;;;;;2.35;0.93;;;23.80;58.40;;;;;;5051580;28;20033;-73
2021/08/07 11:33:03;;;;;;;8.30;1.15;;;23.70;57.70;;;;;;5051511;28;20036;-73
2021/08/07 11:35:35;;;;;;;2.53;0.93;;;23.70;57.60;;;;;;5045727;28;20523;-73
2021/08/07 11:38:10;;;;;;;1.90;0.80;;;23.60;57.20;;;;;;5051595;28;20535;-74
2021/08/07 11:40:58;;;;;;;2.60;0.80;;;23.60;57.00;;;;;;5051334;28;20128;-74
2021/08/07 11:43:28;;;;;;;3.47;1.05;;;23.60;56.90;;;;;;5051125;28;20028;-74
2021/08/07 11:46:00;;;;;;;4.60;0.98;;;23.70;57.00;;;;;;5051301;28;20025;-74
2021/08/07 11:48:27;;;;;;;2.97;0.68;;;23.80;56.80;;;;;;5052551;28;20512;-72
2021/08/07 11:50:55;;;;;;;2.03;0.80;;;23.90;56.90;;;;;;5051319;28;20033;-73
2021/08/07 11:53:22;;;;;;;2.42;1.13;;;24.00;56.60;;;;;;5052401;28;20104;-72
2021/08/07 11:55:59;;;;;;;1.77;0.80;;;24.10;56.40;;;;;;5051274;28;20032;-74
2021/08/07 11:58:25;;;;;;;1.25;1.10;;;24.10;56.40;;;;;;5051171;28;20025;-73
2021/08/07 12:00:59;;;;;;;1.50;1.20;;;24.10;56.50;;;;;;5051282;28;20611;-73
2021/08/07 12:03:26;;;;;;;3.28;0.93;;;24.10;56.50;;;;;;5052500;28;20029;-73
2021/08/07 12:06:00;;;;;;;3.33;1.00;;;24.20;56.50;;;;;;5052536;28;20021;-73
2021/08/07 12:08:34;;;;;;;4.05;1.20;;;24.20;56.30;;;;;;5051123;28;20116;-72
2021/08/07 12:11:06;;;;;;;2.30;0.90;;;24.20;56.30;;;;;;5051484;28;20082;-71
2021/08/07 12:13:36;;;;;;;3.88;0.95;;;24.20;56.10;;;;;;5052296;28;20115;-71
2021/08/07 12:16:03;;;;;;;3.22;1.00;;;24.30;56.00;;;;;;5052641;28;20100;-70
2021/08/07 12:18:50;;;;;;;2.38;0.80;;;24.30;55.40;;;;;;5051141;28;20029;-70
2021/08/07 12:21:32;;;;;;;2.17;0.93;;;24.40;55.30;;;;;;5050828;28;20048;-71
2021/08/07 12:24:02;;;;;;;1.90;0.70;;;24.40;54.70;;;;;;5053718;28;20091;-70
2021/08/07 12:26:29;;;;;;;2.00;0.80;;;24.50;54.20;;;;;;5054838;28;20496;-73
2021/08/07 12:29:04;;;;;;;1.67;0.90;;;24.60;53.80;;;;;;5054924;28;20025;-74
2021/08/07 12:31:49;;;;;;;1.90;0.90;;;24.70;53.10;;;;;;5056520;28;20029;-74
2021/08/07 12:34:29;;;;;;;0.98;0.60;;;24.70;52.80;;;;;;5054709;28;20029;-75
2021/08/07 12:37:04;;;;;;;1.80;0.80;;;24.70;52.60;;;;;;5054763;28;20040;-74
2021/08/07 12:39:38;;;;;;;1.40;0.73;;;24.70;52.60;;;;;;5054726;28;20036;-74
2021/08/07 12:45:26;;;;;;;1.20;0.70;;;24.50;52.00;;;;;;5055849;28;20047;-74
2021/08/07 12:47:55;;;;;;;3.75;0.63;;;24.50;52.20;;;;;;5054512;28;20021;-73
2021/08/07 12:50:21;;;;;;;1.52;0.70;;;24.70;51.90;;;;;;5054432;28;20021;-74
2021/08/07 12:53:00;;;;;;;1.45;0.82;;;24.70;51.50;;;;;;5054294;28;20504;-74
2021/08/07 12:55:30;;;;;;;1.65;0.80;;;24.60;51.70;;;;;;5054022;28;20064;-74
2021/08/07 12:58:10;;;;;;;1.05;0.80;;;24.60;51.70;;;;;;5054184;28;20033;-74
2021/08/07 13:00:35;;;;;;;1.15;0.80;;;24.60;51.50;;;;;;5054327;28;20139;-74
2021/08/07 13:03:09;;;;;;;1.85;0.60;;;24.70;51.40;;;;;;5054315;28;20497;-74
2021/08/07 13:05:37;;;;;;;2.05;0.90;;;24.70;51.50;;;;;;5054247;28;20488;-74
2021/08/07 13:08:31;;;;;;;0.80;0.65;;;24.70;51.20;;;;;;5054208;28;20036;-74
2021/08/07 13:11:21;;;;;;;1.35;0.60;;;24.80;51.20;;;;;;5054020;28;20040;-74
2021/08/07 13:13:53;;;;;;;2.50;0.70;;;24.80;51.40;;;;;;5054287;28;20029;-74
2021/08/07 13:16:45;;;;;;;2.72;0.80;;;24.80;51.20;;;;;;5054139;28;20492;-74
2021/08/07 13:19:16;;;;;;;0.93;0.60;;;24.90;51.20;;;;;;5055010;28;20033;-73
2021/08/07 13:21:42;;;;;;;1.00;0.60;;;24.90;51.30;;;;;;5057205;28;20515;-77
2021/08/07 13:24:26;;;;;;;2.15;0.90;;;24.90;51.20;;;;;;5057253;28;20028;-75
2021/08/07 13:26:52;;;;;;;2.25;0.77;;;24.90;51.10;;;;;;5057095;28;20377;-75
2021/08/07 13:29:18;;;;;;;2.03;0.70;;;24.80;50.90;;;;;;5073737;28;20040;-73
2021/08/07 13:31:44;;;;;;;2.92;0.90;;;24.70;51.00;;;;;;5073654;28;20028;-75
2021/08/07 13:34:11;;;;;;;0.80;0.80;;;24.80;51.10;;;;;;5073467;28;20029;-75
2021/08/07 13:36:36;;;;;;;1.30;0.60;;;24.80;50.80;;;;;;5073564;28;20032;-74